sensor_id;sensor_type;location;lat;lon;timestamp;P1;durP1;ratioP1;P2;durP2;ratioP2
34236;SDS011;20501;45.956;13.632;2024-01-30T00:00:37;16.67;;;8.88;;
34236;SDS011;20501;45.956;13.632;2024-01-30T00:03:03;17.42;;;9.25;;
34236;SDS011;20501;45.956;13.632;2024-01-30T00:05:28;14.73;;;8.30;;
34236;SDS011;20501;45.956;13.632;2024-01-30T00:07:54;13.15;;;7.75;;
34236;SDS011;20501;45.956;13.632;2024-01-30T00:10:19;15.23;;;8.02;;
34236;SDS011;20501;45.956;13.632;2024-01-30T00:12:45;21.97;;;11.33;;
34236;SDS011;20501;45.956;13.632;2024-01-30T00:15:11;22.23;;;10.77;;
34236;SDS011;20501;45.956;13.632;2024-01-30T00:17:37;18.38;;;10.18;;
34236;SDS011;20501;45.956;13.632;2024-01-30T00:20:03;16.85;;;8.52;;
34236;SDS011;20501;45.956;13.632;2024-01-30T00:22:32;18.80;;;9.23;;
34236;SDS011;20501;45.956;13.632;2024-01-30T00:24:58;17.38;;;8.80;;
34236;SDS011;20501;45.956;13.632;2024-01-30T00:27:23;20.77;;;9.50;;
34236;SDS011;20501;45.956;13.632;2024-01-30T00:29:49;19.90;;;10.57;;
34236;SDS011;20501;45.956;13.632;2024-01-30T00:32:14;22.85;;;9.57;;
34236;SDS011;20501;45.956;13.632;2024-01-30T00:34:39;17.35;;;9.20;;
34236;SDS011;20501;45.956;13.632;2024-01-30T00:37:06;19.45;;;9.38;;
34236;SDS011;20501;45.956;13.632;2024-01-30T00:39:32;18.05;;;9.27;;
34236;SDS011;20501;45.956;13.632;2024-01-30T00:41:57;16.85;;;8.82;;
34236;SDS011;20501;45.956;13.632;2024-01-30T00:44:23;18.17;;;8.13;;
34236;SDS011;20501;45.956;13.632;2024-01-30T00:46:48;16.27;;;8.55;;
34236;SDS011;20501;45.956;13.632;2024-01-30T00:49:14;17.38;;;8.35;;
34236;SDS011;20501;45.956;13.632;2024-01-30T00:51:39;19.83;;;8.95;;
34236;SDS011;20501;45.956;13.632;2024-01-30T00:54:05;19.83;;;8.35;;
34236;SDS011;20501;45.956;13.632;2024-01-30T00:56:31;14.60;;;8.63;;
34236;SDS011;20501;45.956;13.632;2024-01-30T00:58:57;20.75;;;8.43;;
34236;SDS011;20501;45.956;13.632;2024-01-30T01:01:22;18.30;;;9.05;;
34236;SDS011;20501;45.956;13.632;2024-01-30T01:03:48;17.77;;;9.02;;
34236;SDS011;20501;45.956;13.632;2024-01-30T01:06:13;17.50;;;8.77;;
34236;SDS011;20501;45.956;13.632;2024-01-30T01:08:39;16.17;;;8.82;;
34236;SDS011;20501;45.956;13.632;2024-01-30T01:11:05;14.40;;;8.23;;
34236;SDS011;20501;45.956;13.632;2024-01-30T01:13:30;16.33;;;8.63;;
34236;SDS011;20501;45.956;13.632;2024-01-30T01:15:55;17.50;;;8.63;;
34236;SDS011;20501;45.956;13.632;2024-01-30T01:18:21;16.50;;;8.63;;
34236;SDS011;20501;45.956;13.632;2024-01-30T01:20:47;18.85;;;8.20;;
34236;SDS011;20501;45.956;13.632;2024-01-30T01:23:12;18.52;;;9.10;;
34236;SDS011;20501;45.956;13.632;2024-01-30T01:25:38;19.15;;;8.80;;
34236;SDS011;20501;45.956;13.632;2024-01-30T01:28:03;15.65;;;8.27;;
34236;SDS011;20501;45.956;13.632;2024-01-30T01:30:29;18.25;;;9.23;;
34236;SDS011;20501;45.956;13.632;2024-01-30T01:32:55;15.00;;;7.75;;
34236;SDS011;20501;45.956;13.632;2024-01-30T01:35:24;16.23;;;8.30;;
34236;SDS011;20501;45.956;13.632;2024-01-30T01:37:50;15.20;;;8.18;;
34236;SDS011;20501;45.956;13.632;2024-01-30T01:40:23;14.32;;;8.05;;
34236;SDS011;20501;45.956;13.632;2024-01-30T01:42:49;16.98;;;8.75;;
34236;SDS011;20501;45.956;13.632;2024-01-30T01:45:17;16.83;;;8.40;;
34236;SDS011;20501;45.956;13.632;2024-01-30T01:47:42;14.82;;;8.40;;
34236;SDS011;20501;45.956;13.632;2024-01-30T01:50:10;14.95;;;7.90;;
34236;SDS011;20501;45.956;13.632;2024-01-30T01:55:04;19.38;;;8.60;;
34236;SDS011;20501;45.956;13.632;2024-01-30T01:57:30;17.55;;;8.77;;
34236;SDS011;20501;45.956;13.632;2024-01-30T01:59:55;16.65;;;7.75;;
34236;SDS011;20501;45.956;13.632;2024-01-30T02:02:21;15.07;;;8.63;;
34236;SDS011;20501;45.956;13.632;2024-01-30T02:04:49;13.73;;;8.32;;
34236;SDS011;20501;45.956;13.632;2024-01-30T02:07:15;18.83;;;8.50;;
34236;SDS011;20501;45.956;13.632;2024-01-30T02:09:40;14.90;;;8.30;;
34236;SDS011;20501;45.956;13.632;2024-01-30T02:12:06;15.65;;;8.25;;
34236;SDS011;20501;45.956;13.632;2024-01-30T02:14:31;18.95;;;8.30;;
34236;SDS011;20501;45.956;13.632;2024-01-30T02:16:57;21.45;;;9.23;;
34236;SDS011;20501;45.956;13.632;2024-01-30T02:19:22;16.50;;;9.25;;
34236;SDS011;20501;45.956;13.632;2024-01-30T02:21:48;17.48;;;9.45;;
34236;SDS011;20501;45.956;13.632;2024-01-30T02:24:13;19.15;;;9.40;;
34236;SDS011;20501;45.956;13.632;2024-01-30T02:26:38;24.98;;;9.85;;
34236;SDS011;20501;45.956;13.632;2024-01-30T02:29:04;18.17;;;9.40;;
34236;SDS011;20501;45.956;13.632;2024-01-30T02:31:29;17.90;;;9.65;;
34236;SDS011;20501;45.956;13.632;2024-01-30T02:33:55;20.73;;;10.07;;
34236;SDS011;20501;45.956;13.632;2024-01-30T02:36:20;18.83;;;8.60;;
34236;SDS011;20501;45.956;13.632;2024-01-30T02:38:45;20.58;;;9.23;;
34236;SDS011;20501;45.956;13.632;2024-01-30T02:41:11;18.73;;;9.35;;
34236;SDS011;20501;45.956;13.632;2024-01-30T02:43:37;18.35;;;10.27;;
34236;SDS011;20501;45.956;13.632;2024-01-30T02:46:02;22.00;;;10.27;;
34236;SDS011;20501;45.956;13.632;2024-01-30T02:48:28;17.67;;;8.82;;
34236;SDS011;20501;45.956;13.632;2024-01-30T02:50:53;19.08;;;9.38;;
34236;SDS011;20501;45.956;13.632;2024-01-30T02:53:18;16.85;;;8.50;;
34236;SDS011;20501;45.956;13.632;2024-01-30T02:55:44;17.27;;;8.57;;
34236;SDS011;20501;45.956;13.632;2024-01-30T02:58:09;18.55;;;9.45;;
34236;SDS011;20501;45.956;13.632;2024-01-30T03:00:35;19.02;;;9.05;;
34236;SDS011;20501;45.956;13.632;2024-01-30T03:03:00;18.88;;;9.20;;
34236;SDS011;20501;45.956;13.632;2024-01-30T03:05:26;16.27;;;8.73;;
34236;SDS011;20501;45.956;13.632;2024-01-30T03:07:52;15.85;;;8.60;;
34236;SDS011;20501;45.956;13.632;2024-01-30T03:10:17;14.80;;;8.82;;
34236;SDS011;20501;45.956;13.632;2024-01-30T03:12:43;15.32;;;8.30;;
34236;SDS011;20501;45.956;13.632;2024-01-30T03:15:08;18.05;;;8.02;;
34236;SDS011;20501;45.956;13.632;2024-01-30T03:17:34;13.23;;;8.17;;
34236;SDS011;20501;45.956;13.632;2024-01-30T03:20:01;16.80;;;8.02;;
34236;SDS011;20501;45.956;13.632;2024-01-30T03:24:54;15.77;;;7.68;;
34236;SDS011;20501;45.956;13.632;2024-01-30T03:27:19;14.13;;;8.10;;
34236;SDS011;20501;45.956;13.632;2024-01-30T03:29:44;14.23;;;7.55;;
34236;SDS011;20501;45.956;13.632;2024-01-30T03:32:10;20.65;;;8.25;;
34236;SDS011;20501;45.956;13.632;2024-01-30T03:34:35;18.65;;;7.82;;
34236;SDS011;20501;45.956;13.632;2024-01-30T03:37:01;15.73;;;8.38;;
34236;SDS011;20501;45.956;13.632;2024-01-30T03:39:26;19.50;;;9.23;;
34236;SDS011;20501;45.956;13.632;2024-01-30T03:41:52;16.25;;;8.48;;
34236;SDS011;20501;45.956;13.632;2024-01-30T03:44:17;17.63;;;8.73;;
34236;SDS011;20501;45.956;13.632;2024-01-30T03:46:43;18.45;;;8.73;;
34236;SDS011;20501;45.956;13.632;2024-01-30T03:49:09;15.95;;;8.63;;
34236;SDS011;20501;45.956;13.632;2024-01-30T03:51:34;24.65;;;7.88;;
34236;SDS011;20501;45.956;13.632;2024-01-30T03:54:00;17.88;;;7.82;;
34236;SDS011;20501;45.956;13.632;2024-01-30T03:56:25;14.13;;;7.03;;
34236;SDS011;20501;45.956;13.632;2024-01-30T03:58:51;15.82;;;7.72;;
34236;SDS011;20501;45.956;13.632;2024-01-30T04:01:16;16.98;;;6.80;;
34236;SDS011;20501;45.956;13.632;2024-01-30T04:03:42;17.33;;;7.50;;
34236;SDS011;20501;45.956;13.632;2024-01-30T04:06:09;13.38;;;7.38;;
34236;SDS011;20501;45.956;13.632;2024-01-30T04:08:34;15.93;;;8.38;;
34236;SDS011;20501;45.956;13.632;2024-01-30T04:11:06;14.77;;;7.65;;
34236;SDS011;20501;45.956;13.632;2024-01-30T04:13:32;13.10;;;7.05;;
34236;SDS011;20501;45.956;13.632;2024-01-30T04:15:59;14.80;;;7.30;;
34236;SDS011;20501;45.956;13.632;2024-01-30T04:18:26;15.68;;;7.72;;
34236;SDS011;20501;45.956;13.632;2024-01-30T04:20:51;12.48;;;6.88;;
34236;SDS011;20501;45.956;13.632;2024-01-30T04:23:17;16.10;;;7.05;;
34236;SDS011;20501;45.956;13.632;2024-01-30T04:25:42;15.77;;;7.18;;
34236;SDS011;20501;45.956;13.632;2024-01-30T04:28:08;11.15;;;6.28;;
34236;SDS011;20501;45.956;13.632;2024-01-30T04:30:33;16.23;;;7.63;;
34236;SDS011;20501;45.956;13.632;2024-01-30T04:32:58;16.80;;;7.57;;
34236;SDS011;20501;45.956;13.632;2024-01-30T04:35:24;14.35;;;6.63;;
34236;SDS011;20501;45.956;13.632;2024-01-30T04:37:51;12.32;;;6.75;;
34236;SDS011;20501;45.956;13.632;2024-01-30T04:40:17;15.52;;;6.78;;
34236;SDS011;20501;45.956;13.632;2024-01-30T04:42:42;17.13;;;7.55;;
34236;SDS011;20501;45.956;13.632;2024-01-30T04:45:08;16.58;;;6.70;;
34236;SDS011;20501;45.956;13.632;2024-01-30T04:47:34;20.02;;;8.05;;
34236;SDS011;20501;45.956;13.632;2024-01-30T04:49:59;18.13;;;8.32;;
34236;SDS011;20501;45.956;13.632;2024-01-30T04:52:24;18.80;;;8.70;;
34236;SDS011;20501;45.956;13.632;2024-01-30T04:54:50;16.25;;;7.88;;
34236;SDS011;20501;45.956;13.632;2024-01-30T04:57:15;15.57;;;8.00;;
34236;SDS011;20501;45.956;13.632;2024-01-30T04:59:41;20.33;;;8.43;;
34236;SDS011;20501;45.956;13.632;2024-01-30T05:02:06;21.98;;;7.95;;
34236;SDS011;20501;45.956;13.632;2024-01-30T05:04:32;18.13;;;8.32;;
34236;SDS011;20501;45.956;13.632;2024-01-30T05:06:57;19.60;;;8.48;;
34236;SDS011;20501;45.956;13.632;2024-01-30T05:09:23;20.88;;;7.35;;
34236;SDS011;20501;45.956;13.632;2024-01-30T05:11:48;15.63;;;7.93;;
34236;SDS011;20501;45.956;13.632;2024-01-30T05:14:14;18.45;;;7.75;;
34236;SDS011;20501;45.956;13.632;2024-01-30T05:16:40;19.97;;;7.10;;
34236;SDS011;20501;45.956;13.632;2024-01-30T05:19:06;11.05;;;6.53;;
34236;SDS011;20501;45.956;13.632;2024-01-30T05:21:31;16.40;;;6.68;;
34236;SDS011;20501;45.956;13.632;2024-01-30T05:23:57;17.50;;;6.90;;
34236;SDS011;20501;45.956;13.632;2024-01-30T05:26:22;11.68;;;6.93;;
34236;SDS011;20501;45.956;13.632;2024-01-30T05:28:48;13.30;;;6.97;;
34236;SDS011;20501;45.956;13.632;2024-01-30T05:31:13;15.35;;;7.07;;
34236;SDS011;20501;45.956;13.632;2024-01-30T05:33:40;16.83;;;6.88;;
34236;SDS011;20501;45.956;13.632;2024-01-30T05:36:05;16.63;;;6.97;;
34236;SDS011;20501;45.956;13.632;2024-01-30T05:38:31;12.05;;;6.43;;
34236;SDS011;20501;45.956;13.632;2024-01-30T05:40:57;16.13;;;6.95;;
34236;SDS011;20501;45.956;13.632;2024-01-30T05:43:25;17.23;;;6.70;;
34236;SDS011;20501;45.956;13.632;2024-01-30T05:45:51;18.77;;;7.07;;
34236;SDS011;20501;45.956;13.632;2024-01-30T05:50:43;11.90;;;6.28;;
34236;SDS011;20501;45.956;13.632;2024-01-30T05:53:08;27.48;;;9.10;;
34236;SDS011;20501;45.956;13.632;2024-01-30T05:55:34;16.83;;;7.47;;
34236;SDS011;20501;45.956;13.632;2024-01-30T05:57:59;13.05;;;5.88;;
34236;SDS011;20501;45.956;13.632;2024-01-30T06:00:25;16.77;;;7.40;;
34236;SDS011;20501;45.956;13.632;2024-01-30T06:02:50;12.23;;;6.63;;
34236;SDS011;20501;45.956;13.632;2024-01-30T06:05:16;11.95;;;7.10;;
34236;SDS011;20501;45.956;13.632;2024-01-30T06:07:41;11.18;;;6.47;;
34236;SDS011;20501;45.956;13.632;2024-01-30T06:10:07;12.55;;;6.38;;
34236;SDS011;20501;45.956;13.632;2024-01-30T06:12:34;16.35;;;7.22;;
34236;SDS011;20501;45.956;13.632;2024-01-30T06:15:00;13.55;;;6.28;;
34236;SDS011;20501;45.956;13.632;2024-01-30T06:17:25;20.25;;;7.20;;
34236;SDS011;20501;45.956;13.632;2024-01-30T06:19:51;11.82;;;6.50;;
34236;SDS011;20501;45.956;13.632;2024-01-30T06:22:16;24.30;;;7.55;;
34236;SDS011;20501;45.956;13.632;2024-01-30T06:24:42;14.73;;;7.07;;
34236;SDS011;20501;45.956;13.632;2024-01-30T06:27:10;16.42;;;7.13;;
34236;SDS011;20501;45.956;13.632;2024-01-30T06:29:35;19.60;;;6.63;;
34236;SDS011;20501;45.956;13.632;2024-01-30T06:32:01;20.45;;;8.88;;
34236;SDS011;20501;45.956;13.632;2024-01-30T06:34:26;22.33;;;8.88;;
34236;SDS011;20501;45.956;13.632;2024-01-30T06:36:52;20.20;;;9.15;;
34236;SDS011;20501;45.956;13.632;2024-01-30T06:39:17;20.77;;;8.70;;
34236;SDS011;20501;45.956;13.632;2024-01-30T06:41:43;20.80;;;9.02;;
34236;SDS011;20501;45.956;13.632;2024-01-30T06:44:08;18.70;;;9.23;;
34236;SDS011;20501;45.956;13.632;2024-01-30T06:46:34;21.88;;;7.80;;
34236;SDS011;20501;45.956;13.632;2024-01-30T06:49:00;23.93;;;9.57;;
34236;SDS011;20501;45.956;13.632;2024-01-30T06:51:26;25.83;;;10.07;;
34236;SDS011;20501;45.956;13.632;2024-01-30T06:53:52;31.10;;;10.93;;
34236;SDS011;20501;45.956;13.632;2024-01-30T06:56:17;19.77;;;8.32;;
34236;SDS011;20501;45.956;13.632;2024-01-30T06:58:47;24.73;;;9.90;;
34236;SDS011;20501;45.956;13.632;2024-01-30T07:03:39;18.83;;;8.90;;
34236;SDS011;20501;45.956;13.632;2024-01-30T07:06:05;24.42;;;8.95;;
34236;SDS011;20501;45.956;13.632;2024-01-30T07:08:30;24.45;;;7.43;;
34236;SDS011;20501;45.956;13.632;2024-01-30T07:10:55;22.80;;;7.70;;
34236;SDS011;20501;45.956;13.632;2024-01-30T07:13:21;22.55;;;8.30;;
34236;SDS011;20501;45.956;13.632;2024-01-30T07:15:47;17.58;;;7.28;;
34236;SDS011;20501;45.956;13.632;2024-01-30T07:18:12;23.60;;;8.60;;
34236;SDS011;20501;45.956;13.632;2024-01-30T07:20:38;16.50;;;7.68;;
34236;SDS011;20501;45.956;13.632;2024-01-30T07:23:10;23.38;;;8.43;;
34236;SDS011;20501;45.956;13.632;2024-01-30T07:25:38;17.77;;;8.85;;
34236;SDS011;20501;45.956;13.632;2024-01-30T07:28:07;16.08;;;8.93;;
34236;SDS011;20501;45.956;13.632;2024-01-30T07:30:37;21.42;;;9.35;;
34236;SDS011;20501;45.956;13.632;2024-01-30T07:33:03;21.70;;;9.32;;
34236;SDS011;20501;45.956;13.632;2024-01-30T07:35:28;17.90;;;8.70;;
34236;SDS011;20501;45.956;13.632;2024-01-30T07:37:54;18.23;;;8.20;;
34236;SDS011;20501;45.956;13.632;2024-01-30T07:40:19;16.90;;;7.97;;
34236;SDS011;20501;45.956;13.632;2024-01-30T07:42:45;21.45;;;8.38;;
34236;SDS011;20501;45.956;13.632;2024-01-30T07:45:10;17.08;;;7.35;;
34236;SDS011;20501;45.956;13.632;2024-01-30T07:47:36;19.20;;;7.20;;
34236;SDS011;20501;45.956;13.632;2024-01-30T07:50:01;12.18;;;7.03;;
34236;SDS011;20501;45.956;13.632;2024-01-30T07:52:27;16.08;;;6.00;;
34236;SDS011;20501;45.956;13.632;2024-01-30T07:54:52;14.43;;;6.90;;
34236;SDS011;20501;45.956;13.632;2024-01-30T07:57:18;12.90;;;6.22;;
34236;SDS011;20501;45.956;13.632;2024-01-30T07:59:43;15.57;;;6.30;;
34236;SDS011;20501;45.956;13.632;2024-01-30T08:02:10;14.75;;;6.10;;
34236;SDS011;20501;45.956;13.632;2024-01-30T08:04:37;19.73;;;6.93;;
34236;SDS011;20501;45.956;13.632;2024-01-30T08:07:02;21.58;;;7.43;;
34236;SDS011;20501;45.956;13.632;2024-01-30T08:09:28;21.80;;;9.30;;
34236;SDS011;20501;45.956;13.632;2024-01-30T08:11:53;18.50;;;8.35;;
34236;SDS011;20501;45.956;13.632;2024-01-30T08:14:19;20.77;;;7.93;;
34236;SDS011;20501;45.956;13.632;2024-01-30T08:16:44;18.83;;;8.05;;
34236;SDS011;20501;45.956;13.632;2024-01-30T08:19:10;19.58;;;7.72;;
34236;SDS011;20501;45.956;13.632;2024-01-30T08:21:35;15.57;;;6.95;;
34236;SDS011;20501;45.956;13.632;2024-01-30T08:24:02;15.15;;;6.32;;
34236;SDS011;20501;45.956;13.632;2024-01-30T08:26:31;11.05;;;6.05;;
34236;SDS011;20501;45.956;13.632;2024-01-30T08:28:57;11.10;;;6.30;;
34236;SDS011;20501;45.956;13.632;2024-01-30T08:31:23;13.50;;;6.30;;
34236;SDS011;20501;45.956;13.632;2024-01-30T08:33:48;10.85;;;6.10;;
34236;SDS011;20501;45.956;13.632;2024-01-30T08:36:15;11.88;;;6.53;;
34236;SDS011;20501;45.956;13.632;2024-01-30T08:38:41;12.68;;;5.70;;
34236;SDS011;20501;45.956;13.632;2024-01-30T08:41:07;12.40;;;6.03;;
34236;SDS011;20501;45.956;13.632;2024-01-30T08:43:33;13.73;;;6.25;;
34236;SDS011;20501;45.956;13.632;2024-01-30T08:45:59;27.13;;;7.40;;
34236;SDS011;20501;45.956;13.632;2024-01-30T08:48:25;25.25;;;6.57;;
34236;SDS011;20501;45.956;13.632;2024-01-30T08:50:50;22.15;;;6.60;;
34236;SDS011;20501;45.956;13.632;2024-01-30T08:53:16;12.20;;;6.45;;
34236;SDS011;20501;45.956;13.632;2024-01-30T08:55:42;12.30;;;5.72;;
34236;SDS011;20501;45.956;13.632;2024-01-30T08:58:07;13.98;;;6.20;;
34236;SDS011;20501;45.956;13.632;2024-01-30T09:00:33;20.27;;;6.45;;
34236;SDS011;20501;45.956;13.632;2024-01-30T09:02:58;14.45;;;5.78;;
34236;SDS011;20501;45.956;13.632;2024-01-30T09:05:24;10.57;;;5.78;;
34236;SDS011;20501;45.956;13.632;2024-01-30T09:07:49;12.73;;;5.85;;
34236;SDS011;20501;45.956;13.632;2024-01-30T09:10:15;17.15;;;6.72;;
34236;SDS011;20501;45.956;13.632;2024-01-30T09:12:40;11.95;;;6.20;;
34236;SDS011;20501;45.956;13.632;2024-01-30T09:15:06;8.73;;;5.47;;
34236;SDS011;20501;45.956;13.632;2024-01-30T09:17:32;12.20;;;6.35;;
34236;SDS011;20501;45.956;13.632;2024-01-30T09:19:58;13.02;;;6.13;;
34236;SDS011;20501;45.956;13.632;2024-01-30T09:22:23;11.73;;;5.13;;
34236;SDS011;20501;45.956;13.632;2024-01-30T09:24:49;14.38;;;6.38;;
34236;SDS011;20501;45.956;13.632;2024-01-30T09:27:14;9.05;;;5.25;;
34236;SDS011;20501;45.956;13.632;2024-01-30T09:29:40;12.68;;;5.38;;
34236;SDS011;20501;45.956;13.632;2024-01-30T09:32:05;13.98;;;5.47;;
34236;SDS011;20501;45.956;13.632;2024-01-30T09:34:31;15.30;;;5.90;;
34236;SDS011;20501;45.956;13.632;2024-01-30T09:36:58;16.08;;;6.03;;
34236;SDS011;20501;45.956;13.632;2024-01-30T09:39:25;18.35;;;6.43;;
34236;SDS011;20501;45.956;13.632;2024-01-30T09:42:33;13.93;;;6.23;;
34236;SDS011;20501;45.956;13.632;2024-01-30T09:44:42;14.25;;;5.57;;
34236;SDS011;20501;45.956;13.632;2024-01-30T09:47:08;15.48;;;5.63;;
34236;SDS011;20501;45.956;13.632;2024-01-30T09:49:35;21.20;;;8.07;;
34236;SDS011;20501;45.956;13.632;2024-01-30T09:52:01;15.70;;;5.70;;
34236;SDS011;20501;45.956;13.632;2024-01-30T09:54:30;13.48;;;6.50;;
34236;SDS011;20501;45.956;13.632;2024-01-30T09:56:56;18.33;;;5.63;;
34236;SDS011;20501;45.956;13.632;2024-01-30T09:59:22;14.65;;;5.57;;
34236;SDS011;20501;45.956;13.632;2024-01-30T10:01:48;12.00;;;6.30;;
34236;SDS011;20501;45.956;13.632;2024-01-30T10:04:15;12.82;;;6.20;;
34236;SDS011;20501;45.956;13.632;2024-01-30T10:06:41;13.70;;;5.23;;
34236;SDS011;20501;45.956;13.632;2024-01-30T10:09:07;15.10;;;5.93;;
34236;SDS011;20501;45.956;13.632;2024-01-30T10:11:33;10.80;;;5.63;;
34236;SDS011;20501;45.956;13.632;2024-01-30T10:13:59;14.03;;;5.73;;
34236;SDS011;20501;45.956;13.632;2024-01-30T10:16:25;15.07;;;5.07;;
34236;SDS011;20501;45.956;13.632;2024-01-30T10:18:50;12.63;;;4.87;;
34236;SDS011;20501;45.956;13.632;2024-01-30T10:21:16;10.43;;;4.27;;
34236;SDS011;20501;45.956;13.632;2024-01-30T10:23:43;12.67;;;7.97;;
34236;SDS011;20501;45.956;13.632;2024-01-30T10:26:09;19.33;;;5.85;;
34236;SDS011;20501;45.956;13.632;2024-01-30T10:28:35;11.27;;;5.57;;
34236;SDS011;20501;45.956;13.632;2024-01-30T10:31:00;8.73;;;4.17;;
34236;SDS011;20501;45.956;13.632;2024-01-30T10:33:26;9.53;;;4.73;;
34236;SDS011;20501;45.956;13.632;2024-01-30T10:36:00;12.77;;;4.97;;
34236;SDS011;20501;45.956;13.632;2024-01-30T10:38:30;9.55;;;4.90;;
34236;SDS011;20501;45.956;13.632;2024-01-30T10:41:00;11.45;;;5.35;;
34236;SDS011;20501;45.956;13.632;2024-01-30T10:43:35;14.75;;;4.60;;
34236;SDS011;20501;45.956;13.632;2024-01-30T10:46:19;8.40;;;4.13;;
34236;SDS011;20501;45.956;13.632;2024-01-30T10:48:57;20.08;;;6.00;;
34236;SDS011;20501;45.956;13.632;2024-01-30T10:51:27;11.43;;;4.43;;
34236;SDS011;20501;45.956;13.632;2024-01-30T10:53:53;9.30;;;4.47;;
34236;SDS011;20501;45.956;13.632;2024-01-30T10:56:21;4.60;;;3.50;;
34236;SDS011;20501;45.956;13.632;2024-01-30T10:58:50;5.63;;;4.25;;
34236;SDS011;20501;45.956;13.632;2024-01-30T11:01:20;5.38;;;3.50;;
34236;SDS011;20501;45.956;13.632;2024-01-30T11:03:52;5.65;;;3.40;;
34236;SDS011;20501;45.956;13.632;2024-01-30T11:06:22;5.60;;;3.53;;
34236;SDS011;20501;45.956;13.632;2024-01-30T11:09:01;6.53;;;4.20;;
34236;SDS011;20501;45.956;13.632;2024-01-30T11:11:29;5.93;;;3.90;;
34236;SDS011;20501;45.956;13.632;2024-01-30T11:13:54;7.37;;;4.10;;
34236;SDS011;20501;45.956;13.632;2024-01-30T11:16:19;6.33;;;4.07;;
34236;SDS011;20501;45.956;13.632;2024-01-30T11:18:49;9.63;;;4.87;;
34236;SDS011;20501;45.956;13.632;2024-01-30T11:21:16;5.00;;;3.60;;
34236;SDS011;20501;45.956;13.632;2024-01-30T11:23:42;7.60;;;4.10;;
34236;SDS011;20501;45.956;13.632;2024-01-30T11:26:10;6.73;;;3.83;;
34236;SDS011;20501;45.956;13.632;2024-01-30T11:28:35;9.90;;;4.40;;
34236;SDS011;20501;45.956;13.632;2024-01-30T11:31:05;7.45;;;4.22;;
34236;SDS011;20501;45.956;13.632;2024-01-30T11:33:32;10.80;;;4.70;;
34236;SDS011;20501;45.956;13.632;2024-01-30T11:38:27;11.75;;;4.60;;
34236;SDS011;20501;45.956;13.632;2024-01-30T11:40:56;12.87;;;4.90;;
34236;SDS011;20501;45.956;13.632;2024-01-30T11:43:22;12.45;;;4.57;;
34236;SDS011;20501;45.956;13.632;2024-01-30T11:45:48;9.57;;;4.25;;
34236;SDS011;20501;45.956;13.632;2024-01-30T11:48:14;10.70;;;4.87;;
34236;SDS011;20501;45.956;13.632;2024-01-30T11:50:40;11.47;;;5.17;;
34236;SDS011;20501;45.956;13.632;2024-01-30T11:53:06;9.37;;;4.70;;
34236;SDS011;20501;45.956;13.632;2024-01-30T11:55:31;7.23;;;4.50;;
34236;SDS011;20501;45.956;13.632;2024-01-30T11:57:58;8.13;;;4.57;;
34236;SDS011;20501;45.956;13.632;2024-01-30T12:00:23;7.67;;;4.20;;
34236;SDS011;20501;45.956;13.632;2024-01-30T12:02:53;7.82;;;4.25;;
34236;SDS011;20501;45.956;13.632;2024-01-30T12:05:23;8.95;;;5.18;;
34236;SDS011;20501;45.956;13.632;2024-01-30T12:07:52;8.45;;;4.38;;
34236;SDS011;20501;45.956;13.632;2024-01-30T12:10:18;12.63;;;4.57;;
34236;SDS011;20501;45.956;13.632;2024-01-30T12:12:47;7.93;;;4.17;;
34236;SDS011;20501;45.956;13.632;2024-01-30T12:15:14;7.88;;;4.15;;
34236;SDS011;20501;45.956;13.632;2024-01-30T12:17:40;7.95;;;5.45;;
34236;SDS011;20501;45.956;13.632;2024-01-30T12:20:13;7.77;;;4.30;;
34236;SDS011;20501;45.956;13.632;2024-01-30T12:22:44;6.32;;;4.68;;
34236;SDS011;20501;45.956;13.632;2024-01-30T12:25:12;6.50;;;3.40;;
34236;SDS011;20501;45.956;13.632;2024-01-30T12:27:39;5.03;;;3.17;;
34236;SDS011;20501;45.956;13.632;2024-01-30T12:30:08;7.10;;;3.42;;
34236;SDS011;20501;45.956;13.632;2024-01-30T12:32:41;6.18;;;4.13;;
34236;SDS011;20501;45.956;13.632;2024-01-30T12:35:14;6.68;;;3.85;;
34236;SDS011;20501;45.956;13.632;2024-01-30T12:37:43;6.85;;;4.05;;
34236;SDS011;20501;45.956;13.632;2024-01-30T12:42:37;6.03;;;3.63;;
34236;SDS011;20501;45.956;13.632;2024-01-30T12:45:03;9.07;;;3.95;;
34236;SDS011;20501;45.956;13.632;2024-01-30T12:47:29;6.25;;;3.65;;
34236;SDS011;20501;45.956;13.632;2024-01-30T12:49:55;5.77;;;3.83;;
34236;SDS011;20501;45.956;13.632;2024-01-30T12:52:21;8.15;;;3.67;;
34236;SDS011;20501;45.956;13.632;2024-01-30T12:54:47;7.57;;;4.00;;
34236;SDS011;20501;45.956;13.632;2024-01-30T12:57:13;10.90;;;4.25;;
34236;SDS011;20501;45.956;13.632;2024-01-30T12:59:39;6.85;;;3.88;;
34236;SDS011;20501;45.956;13.632;2024-01-30T13:02:04;8.73;;;3.45;;
34236;SDS011;20501;45.956;13.632;2024-01-30T13:06:57;11.38;;;4.07;;
34236;SDS011;20501;45.956;13.632;2024-01-30T13:09:23;5.57;;;3.70;;
34236;SDS011;20501;45.956;13.632;2024-01-30T13:11:49;9.18;;;4.70;;
34236;SDS011;20501;45.956;13.632;2024-01-30T13:14:16;8.50;;;4.18;;
34236;SDS011;20501;45.956;13.632;2024-01-30T13:16:41;6.47;;;4.00;;
34236;SDS011;20501;45.956;13.632;2024-01-30T13:19:07;8.48;;;3.47;;
34236;SDS011;20501;45.956;13.632;2024-01-30T13:21:32;6.47;;;3.88;;
34236;SDS011;20501;45.956;13.632;2024-01-30T13:23:58;11.55;;;3.65;;
34236;SDS011;20501;45.956;13.632;2024-01-30T13:26:23;6.63;;;3.72;;
34236;SDS011;20501;45.956;13.632;2024-01-30T13:28:48;7.80;;;6.45;;
34236;SDS011;20501;45.956;13.632;2024-01-30T13:31:14;5.47;;;3.38;;
34236;SDS011;20501;45.956;13.632;2024-01-30T13:33:40;4.32;;;3.13;;
34236;SDS011;20501;45.956;13.632;2024-01-30T13:36:10;6.30;;;3.90;;
34236;SDS011;20501;45.956;13.632;2024-01-30T13:38:36;8.07;;;4.25;;
34236;SDS011;20501;45.956;13.632;2024-01-30T13:41:01;7.63;;;4.10;;
34236;SDS011;20501;45.956;13.632;2024-01-30T13:43:27;6.93;;;4.10;;
34236;SDS011;20501;45.956;13.632;2024-01-30T13:45:53;8.27;;;4.28;;
34236;SDS011;20501;45.956;13.632;2024-01-30T13:48:19;10.63;;;5.38;;
34236;SDS011;20501;45.956;13.632;2024-01-30T13:50:44;9.90;;;5.50;;
34236;SDS011;20501;45.956;13.632;2024-01-30T13:53:10;11.48;;;5.03;;
34236;SDS011;20501;45.956;13.632;2024-01-30T13:55:36;16.98;;;5.60;;
34236;SDS011;20501;45.956;13.632;2024-01-30T13:58:01;8.40;;;5.55;;
34236;SDS011;20501;45.956;13.632;2024-01-30T14:00:27;9.32;;;5.53;;
34236;SDS011;20501;45.956;13.632;2024-01-30T14:02:52;9.00;;;5.82;;
34236;SDS011;20501;45.956;13.632;2024-01-30T14:05:22;15.25;;;6.18;;
34236;SDS011;20501;45.956;13.632;2024-01-30T14:07:48;12.02;;;7.07;;
34236;SDS011;20501;45.956;13.632;2024-01-30T14:10:14;13.38;;;6.82;;
34236;SDS011;20501;45.956;13.632;2024-01-30T14:12:41;17.30;;;8.27;;
34236;SDS011;20501;45.956;13.632;2024-01-30T14:15:08;13.98;;;8.02;;
34236;SDS011;20501;45.956;13.632;2024-01-30T14:17:35;11.75;;;6.97;;
34236;SDS011;20501;45.956;13.632;2024-01-30T14:20:01;15.50;;;7.03;;
34236;SDS011;20501;45.956;13.632;2024-01-30T14:22:28;15.05;;;6.53;;
34236;SDS011;20501;45.956;13.632;2024-01-30T14:24:53;21.20;;;7.93;;
34236;SDS011;20501;45.956;13.632;2024-01-30T14:27:19;14.20;;;6.78;;
34236;SDS011;20501;45.956;13.632;2024-01-30T14:29:44;10.55;;;6.00;;
34236;SDS011;20501;45.956;13.632;2024-01-30T14:32:09;12.55;;;6.30;;
34236;SDS011;20501;45.956;13.632;2024-01-30T14:34:35;14.57;;;6.78;;